createdAt,value
2022-12-31T00:01:44.265Z,100.00
2022-12-31T00:06:46.161Z,100.00
2022-12-31T00:11:47.799Z,100.00
2022-12-31T00:16:49.404Z,100.00
2022-12-31T00:21:51.014Z,100.00
2022-12-31T00:26:52.924Z,100.00
2022-12-31T00:31:54.487Z,100.00
2022-12-31T00:36:56.095Z,100.00
2022-12-31T00:42:00.034Z,100.00
2022-12-31T00:47:01.600Z,100.00
2022-12-31T00:52:03.273Z,100.00
2022-12-31T00:57:04.865Z,100.00
2022-12-31T01:02:06.627Z,100.00
2022-12-31T01:07:08.572Z,100.00
2022-12-31T01:12:10.173Z,100.00
2022-12-31T01:17:13.407Z,100.00
2022-12-31T01:22:15.068Z,100.00
2022-12-31T01:27:16.626Z,100.00
2022-12-31T01:32:18.197Z,100.00
2022-12-31T01:37:19.766Z,100.00
2022-12-31T01:42:21.313Z,100.00
2022-12-31T01:47:35.620Z,100.00
2022-12-31T01:52:45.232Z,100.00
2022-12-31T01:57:51.331Z,100.00
2022-12-31T02:02:56.102Z,100.00
2022-12-31T02:07:59.952Z,100.00
2022-12-31T02:13:02.298Z,100.00
2022-12-31T02:18:24.401Z,100.00
2022-12-31T02:23:47.522Z,100.00
2022-12-31T02:29:33.898Z,100.00
2022-12-31T02:34:45.987Z,99.60
2022-12-31T02:39:48.287Z,98.98
2022-12-31T02:44:49.973Z,98.63
2022-12-31T02:49:59.701Z,97.66
2022-12-31T02:55:14.610Z,96.47
2022-12-31T03:00:35.923Z,97.08
2022-12-31T03:05:43.712Z,96.25
2022-12-31T03:10:45.272Z,95.52
2022-12-31T03:15:46.860Z,95.05
2022-12-31T03:21:09.450Z,93.15
2022-12-31T03:26:12.435Z,92.78
2022-12-31T03:31:14.208Z,92.31
2022-12-31T03:36:15.816Z,93.14
2022-12-31T03:41:17.390Z,93.22
2022-12-31T03:46:19.016Z,92.35
2022-12-31T03:51:20.630Z,92.18
2022-12-31T03:56:22.175Z,92.03
2022-12-31T04:01:24.570Z,91.60
2022-12-31T04:06:26.404Z,92.15
2022-12-31T04:11:27.990Z,92.31
2022-12-31T04:16:29.648Z,92.61
2022-12-31T04:21:34.943Z,91.68
2022-12-31T04:26:37.194Z,91.54
2022-12-31T04:31:38.796Z,90.19
2022-12-31T04:36:40.441Z,90.76
2022-12-31T04:41:42.016Z,90.96
2022-12-31T04:46:44.257Z,90.61
2022-12-31T04:51:45.838Z,91.35
2022-12-31T04:56:47.407Z,90.52
2022-12-31T05:01:49.088Z,90.88
2022-12-31T05:06:50.775Z,90.74
2022-12-31T05:11:52.346Z,91.33
2022-12-31T05:16:54.039Z,91.69
2022-12-31T05:22:14.212Z,90.77
2022-12-31T05:27:15.784Z,90.53
2022-12-31T05:32:17.397Z,90.60
2022-12-31T05:37:18.957Z,90.54
2022-12-31T05:42:20.905Z,90.42
2022-12-31T05:47:22.589Z,90.05
2022-12-31T05:52:24.207Z,89.24
2022-12-31T05:57:26.846Z,89.80
2022-12-31T06:02:28.448Z,89.52
2022-12-31T06:07:30.405Z,90.24
2022-12-31T06:12:32.400Z,90.07
2022-12-31T06:17:34.023Z,90.42
2022-12-31T06:22:35.636Z,90.62
2022-12-31T06:27:37.274Z,90.19
2022-12-31T06:32:40.702Z,90.62
2022-12-31T06:37:42.308Z,91.24
2022-12-31T06:42:43.890Z,90.95
2022-12-31T06:47:45.468Z,91.19
2022-12-31T06:52:47.034Z,91.57
2022-12-31T06:57:48.870Z,91.34
2022-12-31T07:03:01.606Z,90.35
2022-12-31T07:08:27.685Z,90.35
2022-12-31T07:13:44.184Z,90.29
2022-12-31T07:19:09.951Z,90.02
2022-12-31T07:24:12.496Z,90.66
2022-12-31T07:29:20.032Z,90.06
2022-12-31T07:34:43.173Z,88.95
2022-12-31T07:39:50.665Z,87.98
2022-12-31T07:44:58.523Z,88.43
2022-12-31T07:50:00.646Z,86.78
2022-12-31T07:55:02.261Z,85.62
2022-12-31T08:00:11.681Z,85.57
2022-12-31T08:05:40.651Z,85.44
2022-12-31T08:11:01.064Z,84.24
2022-12-31T08:16:11.259Z,83.85
2022-12-31T08:21:36.985Z,83.63
2022-12-31T08:26:53.306Z,82.83
2022-12-31T08:32:21.798Z,81.57
2022-12-31T08:37:36.745Z,81.60
2022-12-31T08:42:43.019Z,80.09
2022-12-31T08:47:59.672Z,79.96
2022-12-31T08:53:02.001Z,80.59
2022-12-31T08:58:30.783Z,79.18
2022-12-31T09:03:50.843Z,78.40
2022-12-31T09:09:21.909Z,78.92
2022-12-31T09:14:41.835Z,78.00
2022-12-31T09:19:43.415Z,77.37
2022-12-31T09:24:45.228Z,77.25
2022-12-31T09:30:07.321Z,76.52
2022-12-31T09:35:33.485Z,76.89
2022-12-31T09:41:09.112Z,76.61
2022-12-31T09:46:43.823Z,75.76
2022-12-31T09:51:54.996Z,75.33
2022-12-31T09:57:03.009Z,74.90
2022-12-31T10:02:47.453Z,74.57
2022-12-31T10:07:59.917Z,73.86
2022-12-31T10:13:20.252Z,72.86
2022-12-31T10:18:49.289Z,72.11
2022-12-31T10:23:52.385Z,71.76
2022-12-31T10:29:09.179Z,72.03
2022-12-31T10:34:33.442Z,70.16
2022-12-31T10:40:00.691Z,70.22
2022-12-31T10:45:17.972Z,70.42
2022-12-31T10:50:47.334Z,70.08
2022-12-31T10:56:26.229Z,69.09
2022-12-31T11:01:33.006Z,69.29
2022-12-31T11:07:10.376Z,69.23
2022-12-31T11:12:23.885Z,68.79
2022-12-31T11:17:50.055Z,68.36
2022-12-31T11:23:10.331Z,68.12
2022-12-31T11:28:24.570Z,68.10
2022-12-31T11:33:50.965Z,67.41
2022-12-31T11:39:27.368Z,67.44
2022-12-31T11:44:59.905Z,67.70
2022-12-31T11:50:25.322Z,66.95
2022-12-31T11:56:06.888Z,67.04
2022-12-31T12:01:17.223Z,66.35
2022-12-31T12:06:25.512Z,66.66
2022-12-31T12:11:33.084Z,65.71
2022-12-31T12:16:34.689Z,64.87
2022-12-31T12:21:46.162Z,65.05
2022-12-31T12:26:48.522Z,65.26
2022-12-31T12:32:04.121Z,65.26
2022-12-31T12:37:22.528Z,65.24
2022-12-31T12:42:24.119Z,65.24
2022-12-31T12:47:26.199Z,65.35
2022-12-31T12:52:37.654Z,64.97
2022-12-31T12:58:00.983Z,65.68
2022-12-31T13:03:17.831Z,65.12
2022-12-31T13:08:41.266Z,65.10
2022-12-31T13:14:14.006Z,64.78
2022-12-31T13:19:42.003Z,65.58
2022-12-31T13:24:49.264Z,65.67
2022-12-31T13:29:53.446Z,65.70
2022-12-31T13:35:00.227Z,65.88
2022-12-31T13:40:07.454Z,66.39
2022-12-31T13:45:20.824Z,66.10
2022-12-31T13:50:29.617Z,66.12
2022-12-31T13:55:42.241Z,66.53
2022-12-31T14:00:50.111Z,66.84
2022-12-31T14:06:28.812Z,66.41
2022-12-31T14:11:51.861Z,66.95
2022-12-31T14:17:17.619Z,66.25
2022-12-31T14:22:28.635Z,66.78
2022-12-31T14:27:35.223Z,66.80
2022-12-31T14:33:09.465Z,67.21
2022-12-31T14:38:39.733Z,67.37
2022-12-31T14:44:26.549Z,66.74
2022-12-31T14:49:43.343Z,66.90
2022-12-31T14:54:44.910Z,67.84
2022-12-31T14:59:56.950Z,67.68
2022-12-31T15:05:26.836Z,67.78
2022-12-31T15:10:46.048Z,68.61
2022-12-31T15:15:59.486Z,69.13
2022-12-31T15:21:32.060Z,69.83
2022-12-31T15:26:34.807Z,70.14
2022-12-31T15:31:45.019Z,70.09
2022-12-31T15:36:56.705Z,70.42
2022-12-31T15:47:32.589Z,71.42
2022-12-31T15:52:42.175Z,71.46
2022-12-31T15:57:44.000Z,71.69
2022-12-31T16:02:48.279Z,72.40
2022-12-31T16:07:54.120Z,72.25
2022-12-31T16:12:57.883Z,72.69
2022-12-31T16:18:05.526Z,72.80
2022-12-31T16:23:21.062Z,73.13
2022-12-31T16:28:28.207Z,73.47
2022-12-31T16:33:31.002Z,74.01
2022-12-31T16:38:37.640Z,74.85
2022-12-31T16:43:41.728Z,75.01
2022-12-31T16:49:15.847Z,75.79
2022-12-31T16:54:30.964Z,75.62
2022-12-31T16:59:45.244Z,75.71
2022-12-31T17:04:56.003Z,75.98
2022-12-31T17:10:15.903Z,75.76
2022-12-31T17:15:27.047Z,75.61
2022-12-31T17:20:31.227Z,75.50
2022-12-31T17:25:36.028Z,75.37
2022-12-31T17:30:40.372Z,75.42
2022-12-31T17:35:44.452Z,74.81
2022-12-31T17:40:51.342Z,75.09
2022-12-31T17:45:54.754Z,75.90
2022-12-31T17:50:58.913Z,76.34
2022-12-31T17:56:06.380Z,77.23
2022-12-31T18:01:09.993Z,77.65
2022-12-31T18:06:16.665Z,77.88
2022-12-31T18:11:24.019Z,78.41
2022-12-31T18:16:25.767Z,78.99
2022-12-31T18:21:32.531Z,79.71
2022-12-31T18:26:34.751Z,79.79
2022-12-31T18:31:36.873Z,80.40
2022-12-31T18:36:38.441Z,81.34
2022-12-31T18:41:45.743Z,82.03
2022-12-31T18:46:47.464Z,82.21
2022-12-31T18:51:54.222Z,82.91
2022-12-31T18:56:57.259Z,83.65
2022-12-31T19:01:59.090Z,83.98
2022-12-31T19:07:00.744Z,84.56
2022-12-31T19:12:02.392Z,84.87
2022-12-31T19:22:04.396Z,84.45
2022-12-31T19:27:05.935Z,83.38
2022-12-31T19:32:07.602Z,80.98
2022-12-31T19:37:15.387Z,78.23
2022-12-31T19:42:17.003Z,76.84
2022-12-31T19:47:18.628Z,75.76
2022-12-31T19:52:20.240Z,75.43
2022-12-31T19:57:21.875Z,75.04
2022-12-31T20:02:23.538Z,74.70
2022-12-31T20:07:27.204Z,74.24
2022-12-31T20:12:29.624Z,73.18
2022-12-31T20:17:31.399Z,73.32
2022-12-31T20:22:33.079Z,72.74
2022-12-31T20:27:36.087Z,73.44
2022-12-31T20:32:37.651Z,74.38
2022-12-31T20:37:39.471Z,74.30
2022-12-31T20:42:41.799Z,74.20
2022-12-31T20:47:43.428Z,74.55
2022-12-31T20:52:45.020Z,75.22
2022-12-31T20:57:46.666Z,75.49
2022-12-31T21:02:57.591Z,76.02
2022-12-31T21:08:05.591Z,76.12
2022-12-31T21:13:07.239Z,76.02
2022-12-31T21:18:08.863Z,75.59
2022-12-31T21:23:10.381Z,74.87
2022-12-31T21:28:12.670Z,74.54
2022-12-31T21:33:14.262Z,74.76
2022-12-31T21:38:16.570Z,74.04
2022-12-31T21:43:18.327Z,74.08
2022-12-31T21:48:19.953Z,74.29
2022-12-31T21:53:27.903Z,74.00
2022-12-31T21:58:34.529Z,73.84
2022-12-31T22:03:36.723Z,74.01
2022-12-31T22:08:44.545Z,74.18
2022-12-31T22:13:47.166Z,73.39
2022-12-31T22:18:49.505Z,74.09
2022-12-31T22:23:54.783Z,74.29
2022-12-31T22:28:59.412Z,74.78
2022-12-31T22:34:02.004Z,75.67
2022-12-31T22:39:03.820Z,76.24
2022-12-31T22:44:05.489Z,76.84
2022-12-31T22:49:07.055Z,76.86
2022-12-31T22:54:10.396Z,76.93
2022-12-31T22:59:11.929Z,77.11
2022-12-31T23:04:13.557Z,77.17
2022-12-31T23:09:35.442Z,76.80
2022-12-31T23:14:55.677Z,76.38
2022-12-31T23:20:15.877Z,77.05
2022-12-31T23:25:17.832Z,76.89
2022-12-31T23:30:19.470Z,77.05
2022-12-31T23:35:21.098Z,77.67
2022-12-31T23:40:22.847Z,77.55
2022-12-31T23:45:29.590Z,77.18
2022-12-31T23:50:34.176Z,77.61
2022-12-31T23:55:35.792Z,77.08
